createdAt,value
2019-06-20T00:01:03.414Z,5.00
2019-06-20T00:03:32.939Z,5.03
2019-06-20T00:06:02.571Z,5.03
2019-06-20T00:08:32.050Z,4.87
2019-06-20T00:11:01.522Z,5.00
2019-06-20T00:13:31.013Z,5.57
2019-06-20T00:16:00.498Z,5.80
2019-06-20T00:18:29.964Z,5.30
2019-06-20T00:20:59.270Z,5.57
2019-06-20T00:23:28.772Z,5.63
2019-06-20T00:25:58.253Z,5.40
2019-06-20T00:28:27.875Z,5.60
2019-06-20T00:30:57.427Z,6.00
2019-06-20T00:33:26.897Z,6.00
2019-06-20T00:35:56.489Z,6.10
2019-06-20T00:38:26.046Z,5.93
2019-06-20T00:40:55.525Z,6.50
2019-06-20T00:43:25.016Z,6.40
2019-06-20T00:45:54.497Z,6.97
2019-06-20T00:48:24.002Z,6.33
2019-06-20T00:50:53.516Z,6.70
2019-06-20T00:53:22.962Z,7.17
2019-06-20T00:55:52.526Z,7.60
2019-06-20T00:58:21.960Z,6.57
2019-06-20T01:00:51.450Z,7.00
2019-06-20T01:03:20.945Z,7.67
2019-06-20T01:05:50.414Z,8.23
2019-06-20T01:08:19.919Z,9.00
2019-06-20T01:10:49.373Z,9.50
2019-06-20T01:13:32.662Z,10.20
2019-06-20T01:15:50.070Z,11.40
2019-06-20T01:18:19.530Z,11.13
2019-06-20T01:20:49.115Z,11.97
2019-06-20T01:23:18.628Z,12.50
2019-06-20T01:25:48.373Z,13.80
2019-06-20T01:28:17.829Z,14.20
2019-06-20T01:30:47.933Z,14.70
2019-06-20T01:33:17.440Z,15.63
2019-06-20T01:35:48.483Z,16.60
2019-06-20T01:38:17.984Z,18.90
2019-06-20T01:40:47.495Z,18.13
2019-06-20T01:43:16.968Z,17.20
2019-06-20T01:45:47.932Z,18.53
2019-06-20T01:48:17.339Z,18.37
2019-06-20T01:50:46.862Z,18.20
2019-06-20T01:53:16.295Z,20.77
2019-06-20T01:55:45.756Z,20.57
2019-06-20T01:58:15.298Z,19.73
2019-06-20T02:00:50.216Z,19.77
2019-06-20T02:03:20.876Z,18.80
2019-06-20T02:05:50.576Z,18.47
2019-06-20T02:08:22.692Z,19.80
2019-06-20T02:10:52.280Z,21.13
2019-06-20T02:13:21.936Z,24.10
2019-06-20T02:15:51.479Z,21.80
2019-06-20T02:18:21.060Z,23.73
2019-06-20T02:20:56.413Z,22.50
2019-06-20T02:23:26.115Z,24.27
2019-06-20T02:25:55.725Z,23.20
2019-06-20T02:28:25.643Z,23.97
2019-06-20T02:30:55.327Z,25.30
2019-06-20T02:33:24.769Z,24.50
2019-06-20T02:35:54.257Z,25.90
2019-06-20T02:38:23.773Z,27.43
2019-06-20T02:40:53.202Z,24.87
2019-06-20T02:43:23.410Z,27.47
2019-06-20T02:45:53.159Z,27.03
2019-06-20T02:48:22.643Z,27.40
2019-06-20T02:50:52.187Z,26.33
2019-06-20T02:53:21.676Z,27.83
2019-06-20T02:55:51.227Z,29.23
2019-06-20T02:58:20.832Z,27.50
2019-06-20T03:00:58.997Z,28.70
2019-06-20T03:03:29.906Z,28.03
2019-06-20T03:05:59.539Z,30.47
2019-06-20T03:08:29.613Z,29.50
2019-06-20T03:10:59.174Z,30.07
2019-06-20T03:13:28.823Z,30.33
2019-06-20T03:15:58.360Z,30.57
2019-06-20T03:18:27.893Z,30.10
2019-06-20T03:20:57.361Z,29.13
2019-06-20T03:23:27.049Z,29.27
2019-06-20T03:25:56.677Z,31.03
2019-06-20T03:28:26.158Z,28.50
2019-06-20T03:30:55.703Z,28.37
2019-06-20T03:33:25.184Z,28.20
2019-06-20T03:35:54.700Z,30.10
2019-06-20T03:38:24.228Z,28.97
2019-06-20T03:40:53.711Z,28.63
2019-06-20T03:43:23.293Z,30.87
2019-06-20T03:45:55.616Z,29.57
2019-06-20T03:48:25.072Z,28.43
2019-06-20T03:50:54.574Z,29.70
2019-06-20T03:53:24.084Z,30.80
2019-06-20T03:55:53.579Z,30.80
2019-06-20T03:58:23.064Z,30.60
2019-06-20T04:00:52.555Z,30.20
2019-06-20T04:03:22.051Z,31.90
2019-06-20T04:05:51.527Z,29.40
2019-06-20T04:08:21.050Z,29.23
2019-06-20T04:10:53.412Z,29.23
2019-06-20T04:13:22.900Z,27.97
2019-06-20T04:15:52.407Z,27.43
2019-06-20T04:18:21.905Z,28.37
2019-06-20T04:20:51.423Z,29.70
2019-06-20T04:25:50.903Z,28.80
2019-06-20T04:28:20.383Z,28.47
2019-06-20T04:30:49.907Z,28.53
2019-06-20T04:33:19.495Z,30.10
2019-06-20T04:35:48.966Z,30.17
2019-06-20T04:38:18.451Z,28.23
2019-06-20T04:40:47.953Z,29.60
2019-06-20T04:43:17.435Z,28.93
2019-06-20T04:45:48.665Z,28.93
2019-06-20T04:48:18.132Z,28.20
2019-06-20T04:50:47.604Z,29.00
2019-06-20T04:53:17.132Z,27.10
2019-06-20T04:55:46.586Z,29.13
2019-06-20T04:58:16.122Z,30.07
2019-06-20T05:00:45.656Z,28.93
2019-06-20T05:03:15.167Z,30.27
2019-06-20T05:05:44.716Z,29.50
2019-06-20T05:08:14.248Z,30.87
2019-06-20T05:10:43.916Z,31.40
2019-06-20T05:13:13.390Z,31.83
2019-06-20T05:15:52.666Z,29.93
2019-06-20T05:18:14.192Z,30.27
2019-06-20T05:20:43.694Z,28.97
2019-06-20T05:23:13.194Z,28.73
2019-06-20T05:25:42.682Z,29.40
2019-06-20T05:28:12.157Z,28.50
2019-06-20T05:30:41.639Z,26.40
2019-06-20T05:33:11.171Z,27.20
2019-06-20T05:35:41.394Z,26.30
2019-06-20T05:38:10.943Z,26.87
2019-06-20T05:40:40.447Z,25.43
2019-06-20T05:43:09.971Z,24.17
2019-06-20T05:45:39.468Z,25.97
2019-06-20T05:48:08.959Z,25.30
2019-06-20T05:50:39.414Z,23.57
2019-06-20T05:53:08.899Z,25.30
2019-06-20T05:55:38.401Z,23.97
2019-06-20T05:58:08.725Z,23.13
2019-06-20T06:00:38.371Z,23.77
2019-06-20T06:03:07.926Z,22.90
2019-06-20T06:05:37.411Z,23.80
2019-06-20T06:08:06.966Z,23.53
2019-06-20T06:10:36.501Z,22.27
2019-06-20T06:13:06.526Z,22.27
2019-06-20T06:15:36.000Z,22.17
2019-06-20T06:18:05.511Z,22.20
2019-06-20T06:20:35.012Z,21.47
2019-06-20T06:23:04.843Z,21.50
2019-06-20T06:25:34.291Z,22.03
2019-06-20T06:28:03.778Z,23.30
2019-06-20T06:30:33.447Z,21.60
2019-06-20T06:33:03.032Z,22.47
2019-06-20T06:35:32.462Z,22.73
2019-06-20T06:38:01.988Z,24.13
2019-06-20T06:40:31.645Z,25.07
2019-06-20T06:43:01.206Z,24.50
2019-06-20T06:45:30.784Z,24.73
2019-06-20T06:48:00.297Z,24.63
2019-06-20T06:50:30.138Z,23.07
2019-06-20T06:52:59.662Z,22.90
2019-06-20T06:55:29.241Z,22.40
2019-06-20T06:57:58.748Z,23.13
2019-06-20T07:00:28.306Z,22.13
2019-06-20T07:02:57.780Z,23.17
2019-06-20T07:05:28.296Z,23.40
2019-06-20T07:07:57.794Z,22.93
2019-06-20T07:10:27.519Z,23.47
2019-06-20T07:12:57.005Z,22.50
2019-06-20T07:15:27.300Z,23.30
2019-06-20T07:17:56.772Z,21.83
2019-06-20T07:20:26.412Z,23.83
2019-06-20T07:22:55.938Z,21.70
2019-06-20T07:25:25.425Z,22.70
2019-06-20T07:27:54.893Z,21.53
2019-06-20T07:30:24.719Z,21.60
2019-06-20T07:32:54.264Z,20.17
2019-06-20T07:35:23.738Z,21.57
2019-06-20T07:37:53.254Z,20.23
2019-06-20T07:40:23.114Z,18.90
2019-06-20T07:42:52.513Z,19.90
2019-06-20T07:45:27.287Z,18.93
2019-06-20T07:47:57.300Z,19.03
2019-06-20T07:50:26.831Z,18.20
2019-06-20T07:53:02.006Z,17.53
2019-06-20T07:55:27.529Z,17.73
2019-06-20T07:57:57.105Z,17.17
2019-06-20T08:00:27.424Z,15.93
2019-06-20T08:02:56.947Z,15.50
2019-06-20T08:05:26.613Z,15.63
2019-06-20T08:07:56.097Z,15.97
2019-06-20T08:10:26.882Z,15.33
2019-06-20T08:12:56.376Z,16.97
2019-06-20T08:15:26.167Z,15.60
2019-06-20T08:17:55.749Z,16.00
2019-06-20T08:20:26.176Z,15.53
2019-06-20T08:22:55.698Z,17.33
2019-06-20T08:25:25.353Z,16.73
2019-06-20T08:27:56.046Z,16.30
2019-06-20T08:30:32.788Z,17.17
2019-06-20T08:33:08.719Z,16.63
2019-06-20T08:35:35.218Z,17.50
2019-06-20T08:38:07.070Z,18.63
2019-06-20T08:40:43.243Z,15.77
2019-06-20T08:43:12.799Z,14.30
2019-06-20T08:45:44.461Z,13.77
2019-06-20T08:48:14.041Z,13.70
2019-06-20T08:50:43.952Z,13.97
2019-06-20T08:53:13.425Z,14.07
2019-06-20T08:55:43.046Z,13.40
2019-06-20T08:58:12.566Z,13.07
2019-06-20T09:00:43.464Z,13.60
2019-06-20T09:03:12.972Z,12.30
2019-06-20T09:05:42.542Z,11.20
2019-06-20T09:08:12.218Z,11.60
2019-06-20T09:10:42.831Z,12.77
2019-06-20T09:13:13.591Z,13.27
2019-06-20T09:15:43.859Z,13.47
2019-06-20T09:18:13.398Z,13.17
2019-06-20T09:20:43.063Z,13.20
2019-06-20T09:23:12.526Z,14.40
2019-06-20T09:25:42.158Z,14.10
2019-06-20T09:28:11.731Z,13.90
2019-06-20T09:30:41.426Z,12.97
2019-06-20T09:33:11.014Z,14.17
2019-06-20T09:35:42.014Z,15.63
2019-06-20T09:38:11.514Z,14.93
2019-06-20T09:40:41.138Z,15.23
2019-06-20T09:43:26.824Z,16.03
2019-06-20T09:45:44.498Z,15.23
2019-06-20T09:48:13.975Z,16.87
2019-06-20T09:50:43.443Z,16.40
2019-06-20T09:53:12.968Z,17.80
2019-06-20T09:55:42.483Z,16.30
2019-06-20T09:58:11.961Z,15.70
2019-06-20T10:00:41.579Z,15.77
2019-06-20T10:03:11.080Z,15.03
2019-06-20T10:05:40.589Z,14.57
2019-06-20T10:08:10.150Z,15.00
2019-06-20T10:10:39.697Z,13.43
2019-06-20T10:13:09.220Z,12.90
2019-06-20T10:15:40.433Z,14.50
2019-06-20T10:18:10.116Z,13.27
2019-06-20T10:20:39.746Z,12.73
2019-06-20T10:23:09.306Z,12.60
2019-06-20T10:25:39.115Z,14.23
2019-06-20T10:28:08.732Z,13.87
2019-06-20T10:30:38.228Z,13.87
2019-06-20T10:33:07.927Z,12.57
2019-06-20T10:35:37.513Z,14.47
2019-06-20T10:38:07.035Z,15.93
2019-06-20T10:40:36.637Z,13.80
2019-06-20T10:43:06.427Z,11.97
2019-06-20T10:45:37.009Z,11.63
2019-06-20T10:48:07.025Z,11.70
2019-06-20T10:50:36.556Z,11.87
2019-06-20T10:53:06.401Z,12.57
2019-06-20T10:55:36.359Z,11.07
2019-06-20T10:58:06.018Z,11.87
2019-06-20T11:00:35.602Z,11.90
2019-06-20T11:03:05.679Z,10.63
2019-06-20T11:05:35.171Z,11.57
2019-06-20T11:08:05.298Z,10.77
2019-06-20T11:10:35.959Z,11.43
2019-06-20T11:13:05.656Z,10.83
2019-06-20T11:15:35.424Z,11.00
2019-06-20T11:18:05.040Z,11.50
2019-06-20T11:20:34.608Z,11.30
2019-06-20T11:23:04.085Z,12.37
2019-06-20T11:25:33.565Z,11.03
2019-06-20T11:28:03.076Z,11.30
2019-06-20T11:30:46.745Z,11.03
2019-06-20T11:33:04.841Z,10.87
2019-06-20T11:35:36.083Z,11.90
2019-06-20T11:38:06.269Z,10.03
2019-06-20T11:40:36.829Z,9.57
2019-06-20T11:43:07.081Z,9.47
2019-06-20T11:45:37.323Z,10.10
2019-06-20T11:48:08.138Z,9.80
2019-06-20T11:50:38.010Z,10.70
2019-06-20T11:53:07.586Z,11.00
2019-06-20T11:55:37.073Z,10.30
2019-06-20T11:58:06.544Z,10.83
2019-06-20T12:00:36.070Z,11.73
2019-06-20T12:03:06.275Z,11.13
2019-06-20T12:05:35.831Z,11.07
2019-06-20T12:08:05.362Z,10.23
2019-06-20T12:10:34.664Z,11.87
2019-06-20T12:13:04.199Z,11.13
2019-06-20T12:15:33.668Z,12.03
2019-06-20T12:18:03.177Z,11.97
2019-06-20T12:20:32.702Z,11.43
2019-06-20T12:23:02.239Z,11.50
2019-06-20T12:25:31.718Z,12.17
2019-06-20T12:28:01.188Z,12.80
2019-06-20T12:30:30.844Z,12.93
2019-06-20T12:33:00.344Z,13.23
2019-06-20T12:35:29.849Z,12.57
2019-06-20T12:37:59.362Z,12.10
2019-06-20T12:40:28.938Z,12.77
2019-06-20T12:42:58.411Z,12.93
2019-06-20T12:45:27.905Z,12.60
2019-06-20T12:47:57.370Z,13.33
2019-06-20T12:50:26.934Z,12.50
2019-06-20T12:52:56.429Z,12.53
2019-06-20T12:55:25.930Z,12.30
2019-06-20T12:57:55.415Z,14.67
2019-06-20T13:00:26.204Z,13.10
2019-06-20T13:02:55.880Z,13.80
2019-06-20T13:05:25.850Z,13.37
2019-06-20T13:07:55.409Z,14.97
2019-06-20T13:10:25.089Z,14.50
2019-06-20T13:12:54.539Z,13.60
2019-06-20T13:15:24.107Z,13.37
2019-06-20T13:17:53.664Z,14.17
2019-06-20T13:20:23.271Z,13.67
2019-06-20T13:22:52.804Z,14.17
2019-06-20T13:25:22.287Z,13.43
2019-06-20T13:27:51.744Z,15.03
2019-06-20T13:30:21.815Z,14.70
2019-06-20T13:32:51.295Z,13.43
2019-06-20T13:35:22.094Z,13.50
2019-06-20T13:37:51.616Z,14.10
2019-06-20T13:40:22.300Z,13.13
2019-06-20T13:42:54.602Z,13.63
2019-06-20T13:45:26.376Z,13.70
2019-06-20T13:47:56.001Z,12.93
2019-06-20T13:50:26.599Z,13.23
2019-06-20T13:52:56.161Z,13.63
2019-06-20T13:55:25.707Z,12.43
2019-06-20T13:57:55.225Z,13.50
2019-06-20T14:00:26.378Z,12.03
2019-06-20T14:02:55.874Z,13.07
2019-06-20T14:05:25.458Z,13.07
2019-06-20T14:07:55.993Z,12.23
2019-06-20T14:10:25.725Z,12.17
2019-06-20T14:12:55.237Z,11.10
2019-06-20T14:15:25.485Z,11.03
2019-06-20T14:17:54.953Z,12.37
2019-06-20T14:20:24.884Z,11.93
2019-06-20T14:22:54.671Z,10.83
2019-06-20T14:25:24.659Z,11.73
2019-06-20T14:27:54.215Z,11.23
2019-06-20T14:30:24.382Z,11.13
2019-06-20T14:32:54.218Z,11.43
2019-06-20T14:35:24.387Z,10.47
2019-06-20T14:37:55.489Z,11.13
2019-06-20T14:40:25.502Z,10.77
2019-06-20T14:42:54.982Z,11.30
2019-06-20T14:45:24.566Z,11.27
2019-06-20T14:47:55.223Z,9.83
2019-06-20T14:50:24.979Z,10.23
2019-06-20T14:52:54.525Z,10.70
2019-06-20T14:55:24.130Z,10.67
2019-06-20T14:57:54.759Z,10.27
2019-06-20T15:00:27.085Z,9.47
2019-06-20T15:02:58.666Z,9.43
2019-06-20T15:05:27.964Z,9.77
2019-06-20T15:07:57.521Z,9.33
2019-06-20T15:10:27.114Z,10.30
2019-06-20T15:12:56.773Z,9.47
2019-06-20T15:15:26.382Z,10.70
2019-06-20T15:17:58.116Z,10.37
2019-06-20T15:20:27.072Z,9.73
2019-06-20T15:22:56.861Z,9.73
2019-06-20T15:25:26.375Z,11.23
2019-06-20T15:27:57.296Z,11.60
2019-06-20T15:30:27.064Z,11.97
2019-06-20T15:33:07.469Z,13.43
2019-06-20T15:35:27.727Z,15.53
2019-06-20T15:37:57.853Z,16.17
2019-06-20T15:40:27.609Z,14.87
2019-06-20T15:42:58.804Z,16.17
2019-06-20T15:45:30.217Z,14.07
2019-06-20T15:47:59.649Z,14.47
2019-06-20T15:50:29.117Z,12.30
2019-06-20T15:52:58.555Z,15.13
2019-06-20T15:55:28.021Z,15.47
2019-06-20T15:57:57.538Z,16.53
2019-06-20T16:00:30.083Z,15.90
2019-06-20T16:03:09.364Z,14.63
2019-06-20T16:05:30.724Z,16.70
2019-06-20T16:08:00.207Z,15.83
2019-06-20T16:10:29.728Z,14.63
2019-06-20T16:12:59.244Z,12.83
2019-06-20T16:15:28.762Z,15.97
2019-06-20T16:17:58.453Z,13.77
2019-06-20T16:20:27.998Z,14.27
2019-06-20T16:22:57.459Z,14.60
2019-06-20T16:25:26.975Z,14.70
2019-06-20T16:27:56.454Z,14.67
2019-06-20T16:30:26.488Z,15.50
2019-06-20T16:32:56.522Z,13.43
2019-06-20T16:35:26.132Z,14.03
2019-06-20T16:37:55.750Z,14.73
2019-06-20T16:40:41.445Z,13.57
2019-06-20T16:43:10.994Z,13.60
2019-06-20T16:45:40.575Z,13.97
2019-06-20T16:48:10.131Z,13.80
2019-06-20T16:50:39.881Z,13.50
2019-06-20T16:53:09.416Z,14.53
2019-06-20T16:55:38.879Z,15.07
2019-06-20T16:58:08.924Z,15.63
2019-06-20T17:00:38.539Z,14.93
2019-06-20T17:03:08.070Z,14.93
2019-06-20T17:05:37.535Z,14.77
2019-06-20T17:08:07.077Z,15.10
2019-06-20T17:10:36.545Z,15.53
2019-06-20T17:13:06.168Z,15.73
2019-06-20T17:15:35.738Z,17.27
2019-06-20T17:18:05.440Z,16.47
2019-06-20T17:20:34.952Z,16.40
2019-06-20T17:23:05.082Z,16.70
2019-06-20T17:25:35.209Z,17.20
2019-06-20T17:28:04.994Z,16.23
2019-06-20T17:30:34.723Z,16.47
2019-06-20T17:33:04.348Z,15.57
2019-06-20T17:35:33.832Z,16.00
2019-06-20T17:38:03.369Z,15.40
2019-06-20T17:40:33.193Z,15.37
2019-06-20T17:43:02.715Z,16.30
2019-06-20T17:45:32.368Z,16.30
2019-06-20T17:48:01.907Z,18.67
2019-06-20T17:50:31.407Z,17.87
2019-06-20T17:53:00.904Z,17.47
2019-06-20T17:55:32.910Z,19.30
2019-06-20T17:58:02.413Z,19.07
2019-06-20T18:00:33.108Z,17.67
2019-06-20T18:03:02.654Z,16.53
2019-06-20T18:05:32.116Z,14.50
2019-06-20T18:08:14.117Z,13.87
2019-06-20T18:10:32.878Z,13.13
2019-06-20T18:13:02.359Z,12.77
2019-06-20T18:15:33.893Z,12.13
2019-06-20T18:18:03.066Z,12.43
2019-06-20T18:20:32.524Z,12.33
2019-06-20T18:23:02.015Z,12.23
2019-06-20T18:25:31.846Z,12.70
2019-06-20T18:28:01.480Z,12.50
2019-06-20T18:30:43.182Z,11.30
2019-06-20T18:33:14.741Z,10.87
2019-06-20T18:35:44.331Z,10.60
2019-06-20T18:38:13.818Z,10.20
2019-06-20T18:40:43.356Z,9.57
2019-06-20T18:43:12.845Z,9.27
2019-06-20T18:45:43.387Z,8.80
2019-06-20T18:48:12.929Z,9.33
2019-06-20T18:50:42.486Z,9.57
2019-06-20T18:53:12.017Z,9.93
2019-06-20T18:55:41.663Z,10.93
2019-06-20T18:58:11.144Z,10.47
2019-06-20T19:00:40.681Z,10.60
2019-06-20T19:03:10.228Z,11.63
2019-06-20T19:05:39.685Z,12.37
2019-06-20T19:08:09.256Z,12.23
2019-06-20T19:10:38.773Z,12.13
2019-06-20T19:13:08.326Z,11.20
2019-06-20T19:15:37.849Z,10.93
2019-06-20T19:18:07.361Z,12.97
2019-06-20T19:20:36.855Z,12.40
2019-06-20T19:23:06.307Z,12.20
2019-06-20T19:25:35.771Z,11.87
2019-06-20T19:28:05.400Z,11.93
2019-06-20T19:30:53.362Z,12.47
2019-06-20T19:33:22.866Z,12.57
2019-06-20T19:35:52.300Z,12.80
2019-06-20T19:38:21.769Z,10.73
2019-06-20T19:40:51.975Z,10.37
2019-06-20T19:43:21.513Z,12.10
2019-06-20T19:45:51.112Z,11.83
2019-06-20T19:48:20.602Z,12.43
2019-06-20T19:50:50.324Z,11.80
2019-06-20T19:53:19.859Z,13.87
2019-06-20T19:55:49.503Z,12.07
2019-06-20T19:58:18.534Z,12.60
2019-06-20T20:00:48.067Z,13.00
2019-06-20T20:03:17.614Z,12.70
2019-06-20T20:05:47.281Z,13.70
2019-06-20T20:08:17.580Z,12.13
2019-06-20T20:10:49.229Z,12.33
2019-06-20T20:13:19.194Z,13.93
2019-06-20T20:15:49.133Z,10.77
2019-06-20T20:18:18.581Z,12.50
2019-06-20T20:20:48.589Z,12.03
2019-06-20T20:23:18.233Z,11.30
2019-06-20T20:25:47.910Z,13.37
2019-06-20T20:28:17.403Z,11.80
2019-06-20T20:30:46.989Z,11.77
2019-06-20T20:33:16.492Z,12.80
2019-06-20T20:35:46.052Z,13.73
2019-06-20T20:38:15.515Z,13.10
2019-06-20T20:40:49.499Z,13.80
2019-06-20T20:43:19.044Z,13.30
2019-06-20T20:45:48.580Z,12.27
2019-06-20T20:48:18.630Z,12.37
2019-06-20T20:50:48.104Z,13.10
2019-06-20T20:53:17.583Z,13.97
2019-06-20T20:55:47.099Z,12.70
2019-06-20T20:58:16.580Z,14.43
2019-06-20T21:00:50.793Z,13.43
2019-06-20T21:03:20.338Z,12.27
2019-06-20T21:05:51.815Z,10.93
2019-06-20T21:08:21.040Z,12.77
2019-06-20T21:10:50.522Z,14.47
2019-06-20T21:13:20.114Z,14.13
2019-06-20T21:15:51.647Z,12.50
2019-06-20T21:18:23.813Z,12.90
2019-06-20T21:20:56.899Z,14.00
2019-06-20T21:23:30.673Z,14.43
2019-06-20T21:26:03.363Z,13.80
2019-06-20T21:28:36.463Z,11.63
2019-06-20T21:31:12.274Z,12.30
2019-06-20T21:33:54.154Z,13.17
2019-06-20T21:36:30.610Z,12.60
2019-06-20T21:39:04.244Z,13.47
2019-06-20T21:41:37.671Z,14.50
2019-06-20T21:44:07.206Z,14.13
2019-06-20T21:46:36.756Z,13.00
2019-06-20T21:49:10.791Z,14.53
2019-06-20T21:51:44.653Z,12.50
2019-06-20T21:54:18.275Z,12.50
2019-06-20T21:56:48.092Z,13.63
2019-06-20T21:59:17.787Z,13.30
2019-06-20T22:01:49.080Z,12.43
2019-06-20T22:04:30.007Z,11.67
2019-06-20T22:07:15.062Z,13.87
2019-06-20T22:09:49.190Z,15.30
2019-06-20T22:12:27.512Z,14.87
2019-06-20T22:14:56.958Z,14.87
2019-06-20T22:17:26.451Z,16.63
2019-06-20T22:19:55.941Z,15.93
2019-06-20T22:22:25.431Z,14.57
2019-06-20T22:24:54.897Z,13.30
2019-06-20T22:27:24.425Z,13.97
2019-06-20T22:29:53.911Z,16.23
2019-06-20T22:32:23.431Z,16.30
2019-06-20T22:34:52.984Z,16.07
2019-06-20T22:37:22.506Z,15.00
2019-06-20T22:39:51.975Z,14.67
2019-06-20T22:42:21.503Z,15.50
2019-06-20T22:44:50.995Z,15.13
2019-06-20T22:47:20.492Z,14.63
2019-06-20T22:49:50.050Z,14.30
2019-06-20T22:52:19.538Z,13.40
2019-06-20T22:54:49.032Z,12.07
2019-06-20T22:57:18.587Z,13.50
2019-06-20T22:59:48.060Z,13.50
2019-06-20T23:02:17.632Z,12.77
2019-06-20T23:04:47.131Z,11.87
2019-06-20T23:07:16.616Z,11.13
2019-06-20T23:09:46.111Z,12.60
2019-06-20T23:12:15.653Z,12.83
2019-06-20T23:14:45.178Z,12.87
2019-06-20T23:17:14.680Z,11.73
2019-06-20T23:19:44.157Z,13.83
2019-06-20T23:22:13.674Z,13.00
2019-06-20T23:24:43.167Z,14.07
2019-06-20T23:27:14.154Z,13.67
2019-06-20T23:29:43.829Z,12.73
2019-06-20T23:32:13.371Z,13.20
2019-06-20T23:34:42.865Z,11.53
2019-06-20T23:37:13.322Z,13.13
2019-06-20T23:39:43.070Z,11.63
2019-06-20T23:42:12.500Z,10.40
2019-06-20T23:44:41.986Z,11.80
2019-06-20T23:47:11.511Z,12.97
2019-06-20T23:49:41.023Z,11.93
2019-06-20T23:52:12.207Z,12.03
2019-06-20T23:54:41.669Z,11.63
2019-06-20T23:57:11.133Z,11.17
2019-06-20T23:59:40.615Z,11.60
